Time;durP1;ratioP1;P1;durP2;ratioP2;P2;SDS_P1;SDS_P2;PMS_P1;PMS_P2;Temp;Humidity;BMP_temperature;BMP_pressure;BME280_temperature;BME280_humidity;BME280_pressure;Samples;Min_cycle;Max_cycle;Signal;HPM_P1;HPM_P2
2023/04/30 00:00:12;;;;;;;1.73;1.05;;;11.50;70.70;;;;;;4994009;28;20025;-67
2023/04/30 00:02:38;;;;;;;3.88;1.40;;;11.50;70.80;;;;;;5007398;28;20034;-67
2023/04/30 00:05:04;;;;;;;0.93;0.90;;;11.50;70.90;;;;;;5011526;28;20441;-68
2023/04/30 00:07:30;;;;;;;2.35;1.10;;;11.50;70.90;;;;;;5009839;28;20496;-68
2023/04/30 00:09:56;;;;;;;2.22;1.23;;;11.40;71.00;;;;;;5009383;28;20028;-69
2023/04/30 00:12:22;;;;;;;1.00;0.85;;;11.40;71.00;;;;;;4993281;28;20029;-67
2023/04/30 00:14:48;;;;;;;1.92;0.90;;;11.30;71.00;;;;;;5010415;28;20164;-67
2023/04/30 00:17:14;;;;;;;1.13;0.68;;;11.30;71.00;;;;;;5009585;28;20053;-67
2023/04/30 00:19:41;;;;;;;2.05;1.15;;;11.20;71.00;;;;;;5008317;28;20398;-67
2023/04/30 00:22:07;;;;;;;1.08;0.98;;;11.20;71.10;;;;;;5007005;28;20033;-66
2023/04/30 00:24:33;;;;;;;3.25;1.05;;;11.20;71.10;;;;;;5009743;28;20030;-67
2023/04/30 00:26:59;;;;;;;1.67;0.90;;;11.20;71.10;;;;;;5009005;28;20064;-66
2023/04/30 00:29:24;;;;;;;1.23;1.00;;;11.10;71.10;;;;;;5003004;28;20085;-67
2023/04/30 00:31:50;;;;;;;1.50;1.00;;;11.10;71.20;;;;;;5005852;28;20026;-67
2023/04/30 00:34:16;;;;;;;1.50;1.00;;;11.10;71.30;;;;;;4987561;28;20113;-67
2023/04/30 00:36:41;;;;;;;1.30;1.10;;;11.00;71.30;;;;;;5008782;28;20489;-66
2023/04/30 00:39:07;;;;;;;1.02;0.90;;;11.00;71.40;;;;;;4986750;28;20476;-67
2023/04/30 00:41:34;;;;;;;1.30;0.90;;;11.00;71.50;;;;;;4983528;28;20445;-68
2023/04/30 00:44:01;;;;;;;1.58;1.13;;;11.00;71.60;;;;;;4988615;28;20040;-68
2023/04/30 00:46:27;;;;;;;1.40;1.20;;;10.90;71.60;;;;;;5004623;28;20041;-66
2023/04/30 00:48:53;;;;;;;1.20;1.10;;;10.80;71.70;;;;;;5006206;28;20030;-67
2023/04/30 00:51:19;;;;;;;1.45;0.80;;;10.80;71.80;;;;;;5009339;28;20088;-68
2023/04/30 00:53:45;;;;;;;0.93;0.88;;;10.80;71.80;;;;;;5006084;28;20038;-68
2023/04/30 00:56:15;;;;;;;1.40;1.00;;;10.80;72.00;;;;;;5004392;28;20040;-67
2023/04/30 00:58:41;;;;;;;1.48;1.10;;;10.80;72.10;;;;;;5009525;28;20104;-67
2023/04/30 01:01:07;;;;;;;1.05;0.70;;;10.80;72.20;;;;;;5009705;28;20441;-68
2023/04/30 01:03:34;;;;;;;1.15;1.05;;;10.80;72.20;;;;;;4990047;28;20385;-68
2023/04/30 01:06:02;;;;;;;3.97;1.38;;;10.80;72.90;;;;;;5009130;28;20033;-68
2023/04/30 01:08:28;;;;;;;1.30;0.95;;;10.80;72.50;;;;;;5008937;28;20044;-66
2023/04/30 01:11:16;;;;;;;2.03;1.20;;;10.80;72.60;;;;;;5010263;28;20040;-68
2023/04/30 01:14:12;;;;;;;1.65;0.90;;;10.80;72.60;;;;;;4989004;28;20049;-67
2023/04/30 01:16:53;;;;;;;1.30;1.00;;;10.80;72.60;;;;;;4999610;28;20948;-67
2023/04/30 01:19:41;;;;;;;2.78;1.50;;;10.80;72.70;;;;;;5001509;28;20057;-67
2023/04/30 01:22:24;;;;;;;1.83;1.35;;;10.80;73.40;;;;;;5003487;28;20026;-67
2023/04/30 01:25:14;;;;;;;3.33;1.23;;;10.70;72.70;;;;;;4987060;28;20133;-72
2023/04/30 01:28:04;;;;;;;3.25;1.27;;;10.80;72.70;;;;;;5003231;28;20111;-67
2023/04/30 01:30:31;;;;;;;1.10;1.00;;;10.70;72.60;;;;;;5003717;28;20027;-67
2023/04/30 01:32:57;;;;;;;1.73;1.23;;;10.70;72.70;;;;;;5007809;28;20018;-67
2023/04/30 01:35:57;;;;;;;4.13;1.40;;;10.70;72.70;;;;;;5004701;28;20173;-67
2023/04/30 01:38:32;;;;;;;2.15;0.90;;;10.70;72.60;;;;;;5000222;28;20553;-67
2023/04/30 01:41:28;;;;;;;4.88;1.33;;;10.60;72.70;;;;;;4987571;28;20033;-67
2023/04/30 01:44:11;;;;;;;1.05;0.90;;;10.70;72.70;;;;;;4987908;28;20413;-67
2023/04/30 01:46:37;;;;;;;1.08;0.98;;;10.60;72.80;;;;;;5006404;28;20026;-66
2023/04/30 01:49:26;;;;;;;1.23;0.98;;;10.50;73.00;;;;;;4991784;28;20038;-67
2023/04/30 01:52:03;;;;;;;1.88;1.10;;;10.50;73.00;;;;;;5001756;28;20496;-67
2023/04/30 01:54:42;;;;;;;2.38;1.40;;;10.50;73.10;;;;;;4991111;28;20018;-67
2023/04/30 01:57:16;;;;;;;6.05;1.08;;;10.40;73.00;;;;;;4988993;28;20026;-67
2023/04/30 01:59:44;;;;;;;2.20;1.80;;;10.40;73.10;;;;;;5009215;28;20018;-67
2023/04/30 02:02:09;;;;;;;1.63;1.27;;;10.30;73.10;;;;;;5006431;28;20022;-68
2023/04/30 02:04:35;;;;;;;1.67;1.13;;;10.40;73.20;;;;;;4991648;28;20466;-67
2023/04/30 02:07:01;;;;;;;1.23;1.00;;;10.30;73.10;;;;;;5007447;28;20528;-67
2023/04/30 02:09:26;;;;;;;4.07;1.67;;;10.30;73.10;;;;;;5009590;28;20050;-67
2023/04/30 02:11:52;;;;;;;3.47;1.27;;;10.30;73.20;;;;;;4990423;28;20068;-67
2023/04/30 02:14:18;;;;;;;1.77;1.20;;;10.30;73.30;;;;;;5007142;28;20030;-67
2023/04/30 02:16:43;;;;;;;1.95;1.13;;;10.20;73.40;;;;;;5007369;28;20022;-67
2023/04/30 02:19:10;;;;;;;2.15;1.30;;;10.20;73.50;;;;;;5007383;28;20038;-67
2023/04/30 02:21:35;;;;;;;1.13;1.02;;;10.30;73.50;;;;;;5007613;28;20065;-68
2023/04/30 02:24:01;;;;;;;1.02;0.77;;;10.30;73.50;;;;;;5006594;28;20025;-67
2023/04/30 02:26:27;;;;;;;1.33;0.90;;;10.20;73.50;;;;;;5006361;28;20041;-68
2023/04/30 02:28:52;;;;;;;2.40;1.13;;;10.20;73.50;;;;;;4974131;28;21271;-68
2023/04/30 02:31:18;;;;;;;2.08;0.90;;;10.20;73.50;;;;;;4990787;28;20352;-67
2023/04/30 02:33:44;;;;;;;1.02;0.70;;;10.20;73.60;;;;;;5004869;28;20389;-68
2023/04/30 02:36:10;;;;;;;1.13;0.90;;;10.20;74.40;;;;;;5007827;28;20034;-69
2023/04/30 02:38:35;;;;;;;0.85;0.75;;;10.10;73.90;;;;;;5003495;28;20064;-68
2023/04/30 02:41:02;;;;;;;2.53;0.90;;;10.20;73.90;;;;;;5009284;28;20034;-68
2023/04/30 02:43:27;;;;;;;1.17;0.70;;;10.20;73.90;;;;;;5006107;28;20026;-68
2023/04/30 02:45:53;;;;;;;2.00;0.85;;;10.20;73.90;;;;;;4998808;28;20914;-66
2023/04/30 02:48:19;;;;;;;1.83;1.02;;;10.20;73.90;;;;;;5006695;28;20060;-68
2023/04/30 02:50:44;;;;;;;2.00;1.35;;;10.20;73.90;;;;;;5000741;28;20117;-66
2023/04/30 02:53:10;;;;;;;2.22;1.50;;;10.20;74.00;;;;;;5002562;28;20409;-67
2023/04/30 02:55:36;;;;;;;3.15;1.80;;;10.20;74.10;;;;;;5000222;28;20283;-67
2023/04/30 02:58:01;;;;;;;1.77;1.27;;;10.20;74.20;;;;;;4988960;28;20121;-67
2023/04/30 03:00:27;;;;;;;2.85;1.40;;;10.10;74.20;;;;;;4970495;28;20114;-68
2023/04/30 03:02:53;;;;;;;2.35;1.30;;;10.20;74.30;;;;;;4985986;28;20069;-67
2023/04/30 03:05:18;;;;;;;0.82;0.80;;;10.10;74.30;;;;;;4981982;28;20515;-67
2023/04/30 03:07:44;;;;;;;1.98;1.25;;;10.10;74.40;;;;;;5007470;28;20432;-67
2023/04/30 03:10:10;;;;;;;2.15;1.35;;;10.10;74.50;;;;;;4969735;28;20033;-68
2023/04/30 03:12:36;;;;;;;2.92;1.35;;;10.10;74.50;;;;;;4975215;28;20114;-67
2023/04/30 03:15:01;;;;;;;2.15;1.33;;;10.10;74.70;;;;;;5005827;28;20438;-68
2023/04/30 03:17:27;;;;;;;1.70;1.15;;;10.00;74.70;;;;;;5006267;28;20073;-67
2023/04/30 03:19:53;;;;;;;2.75;1.38;;;10.10;74.70;;;;;;5005891;28;20448;-68
2023/04/30 03:22:19;;;;;;;2.47;1.30;;;10.10;74.60;;;;;;5010788;28;20436;-66
2023/04/30 03:24:45;;;;;;;1.40;1.02;;;10.00;74.50;;;;;;5008276;28;20444;-66
2023/04/30 03:27:11;;;;;;;1.40;1.00;;;10.00;74.60;;;;;;5011503;28;20029;-67
2023/04/30 03:29:36;;;;;;;1.13;1.00;;;10.00;74.60;;;;;;4984322;28;20410;-67
2023/04/30 03:32:02;;;;;;;1.63;1.52;;;9.90;74.50;;;;;;5011407;28;20470;-66
2023/04/30 03:34:30;;;;;;;1.77;1.20;;;9.90;74.50;;;;;;4987676;28;20037;-67
2023/04/30 03:36:56;;;;;;;2.15;1.38;;;9.90;74.50;;;;;;5006346;28;20515;-67
2023/04/30 03:39:21;;;;;;;2.38;1.25;;;9.90;74.50;;;;;;5005865;28;20018;-69
2023/04/30 03:41:47;;;;;;;2.85;1.80;;;9.90;74.50;;;;;;5007650;28;20609;-67
2023/04/30 03:44:14;;;;;;;1.80;1.30;;;9.80;74.40;;;;;;4973360;28;20058;-66
2023/04/30 03:46:42;;;;;;;1.60;1.15;;;9.80;74.60;;;;;;5004852;28;20092;-66
2023/04/30 03:49:08;;;;;;;3.30;1.55;;;9.70;74.60;;;;;;5003881;28;20033;-66
2023/04/30 03:51:38;;;;;;;1.55;1.20;;;9.70;74.70;;;;;;5005883;28;20092;-67
2023/04/30 03:54:05;;;;;;;1.67;1.23;;;9.70;74.70;;;;;;4998320;28;20034;-67
2023/04/30 03:56:31;;;;;;;1.02;0.90;;;9.70;74.70;;;;;;5001728;28;20026;-67
2023/04/30 03:58:57;;;;;;;4.15;1.67;;;9.70;74.70;;;;;;5009298;28;20057;-66
2023/04/30 04:01:23;;;;;;;1.15;1.05;;;9.70;74.70;;;;;;5008708;28;20058;-66
2023/04/30 04:03:49;;;;;;;2.38;1.83;;;9.60;74.60;;;;;;4992109;28;20030;-66
2023/04/30 04:06:15;;;;;;;1.42;1.15;;;9.60;74.70;;;;;;5009902;28;20401;-66
2023/04/30 04:08:43;;;;;;;2.30;1.60;;;9.60;74.70;;;;;;5009188;28;20034;-68
2023/04/30 04:11:10;;;;;;;2.25;1.40;;;9.60;74.70;;;;;;5007966;28;20088;-67
2023/04/30 04:13:35;;;;;;;3.13;1.13;;;9.50;74.80;;;;;;5008522;28;20025;-69
2023/04/30 04:16:01;;;;;;;1.52;1.23;;;9.60;74.90;;;;;;5009260;28;20034;-69
2023/04/30 04:18:27;;;;;;;2.60;1.50;;;9.50;74.90;;;;;;5009130;28;20121;-68
2023/04/30 04:20:55;;;;;;;1.92;1.63;;;9.50;75.00;;;;;;5003126;28;20034;-68
2023/04/30 04:23:21;;;;;;;2.28;1.50;;;9.50;75.00;;;;;;5010507;28;20086;-68
2023/04/30 04:25:48;;;;;;;6.88;1.75;;;9.50;75.00;;;;;;4991510;28;20460;-69
2023/04/30 04:28:15;;;;;;;1.70;1.25;;;9.50;75.10;;;;;;5006087;28;20031;-69
2023/04/30 04:30:41;;;;;;;7.32;1.17;;;9.50;75.00;;;;;;5008374;28;20567;-67
2023/04/30 04:33:07;;;;;;;1.83;1.40;;;9.50;75.00;;;;;;5009315;28;20037;-67
2023/04/30 04:35:33;;;;;;;7.20;1.67;;;9.60;75.00;;;;;;5009062;28;20049;-67
2023/04/30 04:38:00;;;;;;;1.40;1.10;;;9.60;75.00;;;;;;4990015;28;20034;-66
2023/04/30 04:40:26;;;;;;;4.63;2.05;;;9.60;74.90;;;;;;4988474;28;20067;-68
2023/04/30 04:42:52;;;;;;;2.08;1.50;;;9.60;75.00;;;;;;5009823;28;20030;-69
2023/04/30 04:45:19;;;;;;;1.42;1.10;;;9.60;75.00;;;;;;5009101;28;20049;-67
2023/04/30 04:47:45;;;;;;;1.90;1.20;;;9.60;75.10;;;;;;5009758;28;20081;-67
2023/04/30 04:50:11;;;;;;;1.50;1.00;;;9.60;75.10;;;;;;5008258;28;20049;-67
2023/04/30 04:52:38;;;;;;;3.38;1.75;;;9.60;75.10;;;;;;5009979;28;20366;-67
2023/04/30 04:55:04;;;;;;;1.35;1.25;;;9.70;75.10;;;;;;4988473;28;20022;-67
2023/04/30 04:57:30;;;;;;;2.08;1.63;;;9.70;75.10;;;;;;5008681;28;20435;-66
2023/04/30 04:59:56;;;;;;;1.60;1.33;;;9.70;75.10;;;;;;5009175;28;20021;-66
2023/04/30 05:02:22;;;;;;;2.03;1.30;;;9.80;75.00;;;;;;4986928;28;20365;-66
2023/04/30 05:04:49;;;;;;;1.20;1.10;;;9.80;75.00;;;;;;5009481;28;20034;-71
2023/04/30 05:07:16;;;;;;;2.28;1.27;;;9.90;75.00;;;;;;5005594;28;20397;-66
2023/04/30 05:09:43;;;;;;;2.35;1.25;;;9.90;74.90;;;;;;5002481;28;20432;-67
2023/04/30 05:12:08;;;;;;;2.40;1.45;;;10.00;75.00;;;;;;5007281;28;20018;-66
2023/04/30 05:14:36;;;;;;;2.83;1.85;;;10.00;75.00;;;;;;5002949;28;20026;-66
2023/04/30 05:17:01;;;;;;;1.80;1.35;;;10.00;75.10;;;;;;5009172;28;20030;-67
2023/04/30 05:19:27;;;;;;;2.67;1.55;;;10.10;75.10;;;;;;4991354;28;20472;-67
2023/04/30 05:21:53;;;;;;;2.35;1.42;;;10.10;75.10;;;;;;5010243;28;20062;-67
2023/04/30 05:24:19;;;;;;;5.45;1.67;;;10.10;75.10;;;;;;5009677;28;20029;-66
2023/04/30 05:26:44;;;;;;;1.58;1.20;;;10.20;75.20;;;;;;4990863;28;20041;-67
2023/04/30 05:29:10;;;;;;;1.92;1.55;;;10.20;75.10;;;;;;5005844;28;20026;-68
2023/04/30 05:31:36;;;;;;;2.03;1.60;;;10.30;75.20;;;;;;5009410;28;20042;-68
2023/04/30 05:34:02;;;;;;;3.22;2.03;;;10.30;75.20;;;;;;5009183;28;20140;-67
2023/04/30 05:36:28;;;;;;;8.77;1.90;;;10.40;75.30;;;;;;5009774;28;20105;-68
2023/04/30 05:38:54;;;;;;;3.15;1.88;;;10.40;75.30;;;;;;4987014;28;20038;-68
2023/04/30 05:41:20;;;;;;;2.03;1.60;;;10.40;75.30;;;;;;4989471;28;20107;-68
2023/04/30 05:43:46;;;;;;;1.67;1.30;;;10.50;75.30;;;;;;4989700;28;20018;-68
2023/04/30 05:46:12;;;;;;;4.13;1.73;;;10.50;75.20;;;;;;5008473;28;20401;-67
2023/04/30 05:48:38;;;;;;;3.53;1.70;;;10.50;75.20;;;;;;5004816;28;20110;-67
2023/04/30 05:51:06;;;;;;;3.53;2.03;;;10.60;75.20;;;;;;4992008;28;20037;-68
2023/04/30 05:53:31;;;;;;;2.15;1.30;;;10.60;75.30;;;;;;5005181;28;20033;-68
2023/04/30 05:55:57;;;;;;;4.72;1.60;;;10.70;75.30;;;;;;4988705;28;20137;-69
2023/04/30 05:58:24;;;;;;;4.07;2.28;;;10.70;75.30;;;;;;5006499;28;20061;-68
2023/04/30 06:00:50;;;;;;;2.03;1.40;;;10.70;75.20;;;;;;5006809;28;20543;-68
2023/04/30 06:03:20;;;;;;;3.55;1.50;;;10.80;75.10;;;;;;5000315;28;20105;-68
2023/04/30 06:05:46;;;;;;;3.22;1.42;;;10.90;75.00;;;;;;5009045;28;20037;-68
2023/04/30 06:08:12;;;;;;;2.55;1.58;;;10.90;75.00;;;;;;5010046;28;20038;-69
2023/04/30 06:10:38;;;;;;;1.90;1.20;;;11.00;75.00;;;;;;4988113;28;20029;-68
2023/04/30 06:13:04;;;;;;;2.10;1.30;;;11.00;75.00;;;;;;5009424;28;20385;-69
2023/04/30 06:15:30;;;;;;;2.80;1.52;;;11.10;74.80;;;;;;5008530;28;20018;-67
2023/04/30 06:17:57;;;;;;;4.00;2.05;;;11.10;74.70;;;;;;4991332;28;20624;-66
2023/04/30 06:20:22;;;;;;;1.77;1.48;;;11.20;74.70;;;;;;4991725;28;20029;-66
2023/04/30 06:22:48;;;;;;;2.13;1.45;;;11.20;74.60;;;;;;5009602;28;20439;-67
2023/04/30 06:25:14;;;;;;;1.48;1.23;;;11.30;74.50;;;;;;5008426;28;20026;-67
2023/04/30 06:27:39;;;;;;;1.65;1.13;;;11.40;74.50;;;;;;5008334;28;20420;-66
2023/04/30 06:30:06;;;;;;;2.17;1.55;;;11.50;74.40;;;;;;5006385;28;20637;-68
2023/04/30 06:32:31;;;;;;;1.77;0.77;;;11.50;74.20;;;;;;4987624;28;20038;-68
2023/04/30 06:34:58;;;;;;;2.00;1.40;;;11.60;74.20;;;;;;5008203;28;20026;-68
2023/04/30 06:37:23;;;;;;;2.20;1.60;;;11.60;74.10;;;;;;5005505;28;20041;-66
2023/04/30 06:39:50;;;;;;;1.67;1.05;;;11.60;74.20;;;;;;5003866;28;20041;-67
2023/04/30 06:42:16;;;;;;;1.25;1.10;;;11.70;74.10;;;;;;5003029;28;20030;-73
2023/04/30 06:44:42;;;;;;;2.95;1.45;;;11.70;74.00;;;;;;5007600;28;20374;-67
2023/04/30 06:47:07;;;;;;;1.17;0.90;;;11.80;74.00;;;;;;5007968;28;20022;-63
2023/04/30 06:49:33;;;;;;;2.47;1.30;;;11.80;73.80;;;;;;5006392;28;20088;-63
2023/04/30 06:52:00;;;;;;;2.00;1.17;;;11.90;73.80;;;;;;5009594;28;20436;-63
2023/04/30 06:54:26;;;;;;;2.45;1.30;;;11.90;73.60;;;;;;5011919;28;20044;-64
2023/04/30 06:56:52;;;;;;;2.45;1.55;;;11.90;73.50;;;;;;5010188;28;20493;-66
2023/04/30 06:59:18;;;;;;;1.50;1.33;;;12.00;73.40;;;;;;5009630;28;20072;-63
2023/04/30 07:01:43;;;;;;;1.65;1.25;;;12.00;73.30;;;;;;5012303;28;20450;-65
2023/04/30 07:04:09;;;;;;;1.88;1.27;;;12.10;73.20;;;;;;5009999;28;20167;-66
2023/04/30 07:06:35;;;;;;;1.67;1.17;;;12.20;73.20;;;;;;4991293;28;20034;-69
2023/04/30 07:09:01;;;;;;;1.75;1.30;;;12.20;73.10;;;;;;5012159;28;20030;-68
2023/04/30 07:11:27;;;;;;;4.47;1.15;;;12.30;73.00;;;;;;5012673;28;20041;-68
2023/04/30 07:13:53;;;;;;;1.30;1.20;;;12.40;72.80;;;;;;5010166;28;20396;-67
2023/04/30 07:16:18;;;;;;;1.45;1.13;;;12.50;72.70;;;;;;5010310;28;20490;-63
2023/04/30 07:18:47;;;;;;;1.38;1.05;;;12.60;72.50;;;;;;4988557;28;20042;-63
2023/04/30 07:21:13;;;;;;;1.50;1.05;;;12.70;72.30;;;;;;5012150;28;20105;-69
2023/04/30 07:23:39;;;;;;;1.95;1.00;;;12.70;72.10;;;;;;4991638;28;20030;-66
2023/04/30 07:26:05;;;;;;;1.42;0.88;;;12.70;72.00;;;;;;5011830;28;20488;-66
2023/04/30 07:28:30;;;;;;;1.42;1.00;;;12.80;72.60;;;;;;5012688;28;20060;-65
2023/04/30 07:30:56;;;;;;;1.45;1.15;;;12.90;71.90;;;;;;4975992;28;20508;-68
2023/04/30 07:33:22;;;;;;;1.55;1.38;;;13.00;71.70;;;;;;5012141;28;20105;-68
2023/04/30 07:35:47;;;;;;;1.27;0.93;;;13.10;71.50;;;;;;4990070;28;20037;-68
2023/04/30 07:38:13;;;;;;;2.22;1.33;;;13.20;71.40;;;;;;5011556;28;20041;-68
2023/04/30 07:40:39;;;;;;;2.03;1.30;;;13.20;71.00;;;;;;5005073;28;20030;-68
2023/04/30 07:43:05;;;;;;;1.58;1.02;;;13.30;70.80;;;;;;5004622;28;20053;-66
2023/04/30 07:45:32;;;;;;;1.23;0.90;;;13.30;70.60;;;;;;5009698;28;20489;-66
2023/04/30 07:47:57;;;;;;;1.95;1.20;;;13.40;70.60;;;;;;5010878;28;20029;-66
2023/04/30 07:50:23;;;;;;;2.05;1.38;;;13.50;70.40;;;;;;5004295;28;20049;-66
2023/04/30 07:52:49;;;;;;;2.03;1.42;;;13.50;70.20;;;;;;5005788;28;20382;-67
2023/04/30 07:55:15;;;;;;;2.83;1.30;;;13.60;70.20;;;;;;4985902;28;20247;-66
2023/04/30 07:57:41;;;;;;;2.05;1.17;;;13.60;70.00;;;;;;5007849;28;20053;-67
2023/04/30 08:00:07;;;;;;;1.90;1.02;;;13.60;70.00;;;;;;4989120;28;20417;-68
2023/04/30 08:02:33;;;;;;;2.08;1.50;;;13.70;69.80;;;;;;4993002;28;20024;-68
2023/04/30 08:04:58;;;;;;;2.78;1.05;;;13.80;69.70;;;;;;5010722;28;20034;-68
2023/04/30 08:07:24;;;;;;;2.63;1.30;;;13.90;69.50;;;;;;5005755;28;20038;-68
2023/04/30 08:09:50;;;;;;;1.00;0.80;;;13.90;69.50;;;;;;5011572;28;20030;-68
2023/04/30 08:12:16;;;;;;;2.53;0.55;;;14.00;69.50;;;;;;4991785;28;20030;-68
2023/04/30 08:14:42;;;;;;;1.60;1.08;;;14.10;69.50;;;;;;5003765;28;20034;-68
2023/04/30 08:17:08;;;;;;;1.67;1.20;;;14.20;69.30;;;;;;5006935;28;20030;-68
2023/04/30 08:19:33;;;;;;;1.98;1.35;;;14.30;69.20;;;;;;4992298;28;20050;-68
2023/04/30 08:22:00;;;;;;;1.77;1.38;;;14.30;68.90;;;;;;4993176;28;20050;-66
2023/04/30 08:24:25;;;;;;;2.70;1.65;;;14.30;68.60;;;;;;5009319;28;20465;-66
2023/04/30 08:26:51;;;;;;;1.63;1.25;;;14.30;68.60;;;;;;4986966;28;20042;-68
2023/04/30 08:29:17;;;;;;;1.85;1.45;;;14.40;68.60;;;;;;4991274;28;20057;-67
2023/04/30 08:31:42;;;;;;;1.30;1.20;;;14.50;68.50;;;;;;4993518;28;20026;-68
2023/04/30 08:34:08;;;;;;;1.25;1.15;;;14.60;68.40;;;;;;5009201;28;20083;-68
2023/04/30 08:36:34;;;;;;;2.00;1.20;;;14.60;68.10;;;;;;4993376;28;20034;-67
2023/04/30 08:39:00;;;;;;;1.33;1.23;;;14.70;68.10;;;;;;5011322;28;20053;-66
2023/04/30 08:41:33;;;;;;;1.38;0.90;;;14.80;68.10;;;;;;5009489;28;20072;-65
2023/04/30 08:44:01;;;;;;;0.98;0.82;;;14.80;68.00;;;;;;4993675;28;20021;-66
2023/04/30 08:46:30;;;;;;;1.65;1.20;;;15.00;67.90;;;;;;5008620;28;20112;-68
2023/04/30 08:48:56;;;;;;;1.90;0.90;;;15.00;67.30;;;;;;5003451;28;20496;-68
2023/04/30 08:51:23;;;;;;;1.55;1.33;;;15.10;67.30;;;;;;5010232;28;20033;-68
2023/04/30 08:53:50;;;;;;;2.35;0.60;;;15.20;67.00;;;;;;5011089;28;20057;-68
2023/04/30 08:56:15;;;;;;;2.58;1.10;;;15.30;66.80;;;;;;4990362;28;20536;-66
2023/04/30 08:58:42;;;;;;;1.08;0.90;;;15.40;66.50;;;;;;5011495;28;20109;-66
2023/04/30 09:01:09;;;;;;;1.15;0.70;;;15.40;66.20;;;;;;5009366;28;20018;-66
2023/04/30 09:03:36;;;;;;;3.47;1.70;;;15.50;66.00;;;;;;5010554;28;20026;-66
2023/04/30 09:06:01;;;;;;;1.83;1.38;;;15.60;65.50;;;;;;5010260;28;20022;-66
2023/04/30 09:08:47;;;;;;;0.63;0.63;;;15.60;65.40;;;;;;4992500;28;20092;-67
2023/04/30 09:11:21;;;;;;;1.60;1.10;;;15.70;65.20;;;;;;5006755;28;20044;-66
2023/04/30 09:13:49;;;;;;;2.75;1.35;;;15.70;64.90;;;;;;5010525;28;20489;-66
2023/04/30 09:16:15;;;;;;;2.53;1.17;;;15.80;64.80;;;;;;5008659;28;20505;-66
2023/04/30 09:18:41;;;;;;;2.95;1.30;;;15.90;64.90;;;;;;5010614;28;20054;-67
2023/04/30 09:21:07;;;;;;;1.15;0.80;;;16.00;64.30;;;;;;5010282;28;20028;-68
2023/04/30 09:23:33;;;;;;;1.85;1.05;;;16.10;64.10;;;;;;5010212;28;20030;-68
2023/04/30 09:25:59;;;;;;;3.97;1.40;;;16.20;64.00;;;;;;4985119;28;20085;-68
2023/04/30 09:28:27;;;;;;;2.78;0.90;;;16.30;63.80;;;;;;5009837;28;20057;-66
2023/04/30 09:30:56;;;;;;;1.98;1.48;;;16.40;63.50;;;;;;5009112;28;20312;-66
2023/04/30 09:33:21;;;;;;;1.38;0.85;;;16.50;63.10;;;;;;4992526;28;20022;-69
2023/04/30 09:35:48;;;;;;;1.80;1.17;;;16.50;63.30;;;;;;5009542;28;20030;-69
2023/04/30 09:38:30;;;;;;;0.88;0.82;;;16.50;62.80;;;;;;5006687;28;20029;-68
2023/04/30 09:41:00;;;;;;;1.25;0.90;;;16.60;62.70;;;;;;5010192;28;20105;-68
2023/04/30 09:43:27;;;;;;;4.28;1.20;;;16.70;62.80;;;;;;5010099;28;20037;-67
2023/04/30 09:45:53;;;;;;;1.38;0.90;;;16.80;62.30;;;;;;5003661;28;20025;-66
2023/04/30 09:48:22;;;;;;;1.25;1.15;;;16.90;62.20;;;;;;4992330;28;20044;-66
2023/04/30 09:50:49;;;;;;;1.83;1.33;;;17.00;62.00;;;;;;5009171;28;20112;-65
2023/04/30 09:53:18;;;;;;;2.63;1.27;;;17.10;61.50;;;;;;5009856;28;20032;-67
2023/04/30 09:55:48;;;;;;;3.05;1.05;;;17.10;61.00;;;;;;4997373;28;20030;-69
2023/04/30 09:58:15;;;;;;;1.13;0.85;;;17.10;60.70;;;;;;4992170;28;20032;-67
2023/04/30 10:00:43;;;;;;;1.33;0.98;;;17.10;61.00;;;;;;5006323;28;20041;-68
2023/04/30 10:03:11;;;;;;;1.35;0.82;;;17.30;61.00;;;;;;5009961;28;20018;-65
2023/04/30 10:05:41;;;;;;;1.92;1.10;;;17.40;60.70;;;;;;5007054;28;20339;-67
2023/04/30 10:08:20;;;;;;;0.88;0.75;;;17.40;60.00;;;;;;5009275;28;20061;-67
2023/04/30 10:10:52;;;;;;;0.50;0.35;;;17.60;60.00;;;;;;5007829;28;20022;-68
2023/04/30 10:13:19;;;;;;;0.95;0.70;;;17.70;59.90;;;;;;4991949;28;20021;-66
2023/04/30 10:15:51;;;;;;;1.20;1.00;;;17.90;59.20;;;;;;5008089;28;20401;-67
2023/04/30 10:18:30;;;;;;;3.08;1.23;;;18.00;59.10;;;;;;5009750;28;20456;-68
2023/04/30 10:20:58;;;;;;;0.90;0.80;;;18.20;58.50;;;;;;4985333;28;20129;-68
2023/04/30 10:23:24;;;;;;;1.52;1.13;;;18.30;58.30;;;;;;5009217;28;20540;-67
2023/04/30 10:25:50;;;;;;;3.17;1.17;;;18.30;57.80;;;;;;5000859;28;20036;-68
2023/04/30 10:28:16;;;;;;;1.00;0.80;;;18.30;58.10;;;;;;5013207;28;20482;-67
2023/04/30 10:30:42;;;;;;;1.67;0.68;;;18.50;58.30;;;;;;5003344;28;20084;-67
2023/04/30 10:33:14;;;;;;;0.60;0.60;;;18.60;57.70;;;;;;5001885;28;20022;-68
2023/04/30 10:35:49;;;;;;;1.05;0.75;;;18.70;57.40;;;;;;5001972;28;20026;-66
2023/04/30 10:38:27;;;;;;;1.40;0.63;;;18.80;57.40;;;;;;5007264;28;20028;-66
2023/04/30 10:40:58;;;;;;;0.85;0.63;;;18.90;57.00;;;;;;5008795;28;20022;-66
2023/04/30 10:43:24;;;;;;;1.20;1.08;;;19.00;57.10;;;;;;5008394;28;20548;-66
2023/04/30 10:45:50;;;;;;;1.45;0.90;;;19.10;56.70;;;;;;5012116;28;20102;-66
2023/04/30 10:48:23;;;;;;;2.40;0.90;;;19.10;56.30;;;;;;5006936;28;20410;-66
2023/04/30 10:50:59;;;;;;;0.95;0.75;;;19.10;56.30;;;;;;5006901;28;20091;-68
2023/04/30 10:53:27;;;;;;;1.63;0.90;;;19.20;56.50;;;;;;5004887;28;20508;-68
2023/04/30 10:56:05;;;;;;;0.93;0.90;;;19.20;56.10;;;;;;5006486;28;20026;-68
2023/04/30 10:58:35;;;;;;;1.10;0.90;;;19.30;56.00;;;;;;5008562;28;20061;-66
2023/04/30 11:01:07;;;;;;;0.95;0.75;;;19.40;55.80;;;;;;5007974;28;20369;-67
2023/04/30 11:03:34;;;;;;;1.20;0.73;;;19.50;55.70;;;;;;5009359;28;20033;-68
2023/04/30 11:06:06;;;;;;;1.83;1.17;;;19.70;55.70;;;;;;5010888;28;20030;-66
2023/04/30 11:08:33;;;;;;;;;;;19.90;55.40;;;;;;5008772;28;20034;-68
2023/04/30 11:11:00;;;;;;;0.90;0.90;;;20.00;54.90;;;;;;5010390;28;19913;-68
2023/04/30 11:13:27;;;;;;;1.60;1.08;;;20.10;55.00;;;;;;5011125;28;20480;-68
2023/04/30 11:15:53;;;;;;;4.00;1.48;;;20.20;54.90;;;;;;5011200;28;20034;-67
2023/04/30 11:18:19;;;;;;;1.70;0.88;;;20.30;54.60;;;;;;5004457;28;20046;-68
2023/04/30 11:20:50;;;;;;;1.05;0.85;;;20.20;54.10;;;;;;5011792;28;20045;-68
2023/04/30 11:23:21;;;;;;;2.50;1.23;;;20.30;53.80;;;;;;5010502;28;20044;-68
2023/04/30 11:25:47;;;;;;;0.60;0.60;;;20.20;53.40;;;;;;5012134;28;20153;-66
2023/04/30 11:28:49;;;;;;;0.70;0.70;;;20.20;54.00;;;;;;5013235;28;20473;-66
2023/04/30 11:31:15;;;;;;;0.80;0.80;;;20.40;54.00;;;;;;5004551;28;20041;-68
2023/04/30 11:33:41;;;;;;;0.88;0.60;;;20.50;53.70;;;;;;5012833;28;20489;-65
2023/04/30 11:36:07;;;;;;;1.10;0.68;;;20.60;53.50;;;;;;5009096;28;20114;-67
2023/04/30 11:38:36;;;;;;;1.25;0.95;;;20.70;53.50;;;;;;5012194;28;20030;-66
2023/04/30 11:41:03;;;;;;;0.55;0.55;;;20.80;53.40;;;;;;5009810;28;20534;-66
2023/04/30 11:43:30;;;;;;;0.55;0.50;;;20.90;53.10;;;;;;5013428;28;20354;-66
2023/04/30 11:46:03;;;;;;;12.63;1.10;;;21.10;53.00;;;;;;5011386;28;20121;-66
2023/04/30 11:48:35;;;;;;;0.73;0.70;;;21.10;52.30;;;;;;5005287;28;20038;-66
2023/04/30 11:51:25;;;;;;;0.70;0.70;;;21.10;52.10;;;;;;4994317;28;20099;-66
2023/04/30 11:53:52;;;;;;;1.02;0.60;;;21.20;52.10;;;;;;5007015;28;20027;-67
2023/04/30 11:56:20;;;;;;;0.68;0.68;;;21.30;52.20;;;;;;5003449;28;20034;-67
2023/04/30 11:58:47;;;;;;;7.25;0.65;;;21.50;52.10;;;;;;5009194;28;20492;-68
2023/04/30 12:01:14;;;;;;;0.82;0.70;;;21.70;52.10;;;;;;5010969;28;20026;-68
2023/04/30 12:03:45;;;;;;;1.80;1.10;;;21.80;51.90;;;;;;4995591;28;20030;-67
2023/04/30 12:06:20;;;;;;;1.85;0.60;;;21.90;51.40;;;;;;5010531;28;20029;-68
2023/04/30 12:08:46;;;;;;;1.85;0.85;;;22.00;51.70;;;;;;5005137;28;20050;-67
2023/04/30 12:11:26;;;;;;;0.70;0.70;;;22.10;51.30;;;;;;5011378;28;20042;-66
2023/04/30 12:13:59;;;;;;;1.50;1.10;;;22.20;50.50;;;;;;5010947;28;20412;-67
2023/04/30 12:16:28;;;;;;;0.82;0.70;;;22.20;50.40;;;;;;5009038;28;20062;-66
2023/04/30 12:18:54;;;;;;;0.65;0.40;;;22.10;50.10;;;;;;5005692;28;20557;-66
2023/04/30 12:21:21;;;;;;;1.05;0.65;;;22.20;50.30;;;;;;5001575;28;20488;-68
2023/04/30 12:23:47;;;;;;;1.25;0.60;;;22.30;50.40;;;;;;4996968;28;20138;-68
2023/04/30 12:26:13;;;;;;;4.05;1.02;;;22.30;50.20;;;;;;5000285;28;20061;-67
2023/04/30 12:28:39;;;;;;;0.60;0.60;;;22.40;50.70;;;;;;5005717;28;20030;-68
2023/04/30 12:31:04;;;;;;;0.65;0.45;;;22.50;50.10;;;;;;5004546;28;20038;-66
2023/04/30 12:33:30;;;;;;;0.52;0.52;;;22.60;49.60;;;;;;5006920;28;20037;-68
2023/04/30 12:35:59;;;;;;;0.77;0.77;;;22.70;49.90;;;;;;5004031;28;20066;-68
2023/04/30 12:38:25;;;;;;;2.15;0.65;;;22.90;49.10;;;;;;5006690;28;20033;-66
2023/04/30 12:40:50;;;;;;;1.10;0.90;;;22.90;48.40;;;;;;4986706;28;20044;-68
2023/04/30 12:43:17;;;;;;;0.30;0.30;;;22.90;48.60;;;;;;5008711;28;20368;-68
2023/04/30 12:45:51;;;;;;;2.63;0.73;;;22.90;48.70;;;;;;5002009;28;20076;-68
2023/04/30 12:48:24;;;;;;;1.58;0.50;;;22.90;48.50;;;;;;5006433;28;20542;-68
2023/04/30 12:50:53;;;;;;;0.50;0.50;;;22.80;48.40;;;;;;5002460;28;20030;-67